Time;durP1;ratioP1;P1;durP2;ratioP2;P2;SDS_P1;SDS_P2;PMS_P1;PMS_P2;Temp;Humidity;BMP_temperature;BMP_pressure;BME280_temperature;BME280_humidity;BME280_pressure;Samples;Min_cycle;Max_cycle;Signal;HPM_P1;HPM_P2
2023/07/24 00:00:23;;;;;;;;;5.50;4.25;;;;;22.49;45.64;100226.84;5034023;28;52961;-66
2023/07/24 00:02:48;;;;;;;;;4.00;3.25;;;;;22.46;45.82;100229.72;5042003;28;45350;-67
2023/07/24 00:05:14;;;;;;;;;3.50;1.00;;;;;22.43;45.71;100227.28;5039760;28;45422;-66
2023/07/24 00:07:39;;;;;;;;;5.25;3.00;;;;;22.40;46.02;100220.31;5040106;28;46008;-67
2023/07/24 00:10:05;;;;;;;;;3.00;3.00;;;;;22.37;45.92;100215.19;5041895;28;45277;-67
2023/07/24 00:12:30;;;;;;;;;5.00;3.00;;;;;22.36;46.18;100210.78;5051819;28;45440;-68
2023/07/24 00:14:55;;;;;;;;;4.00;4.00;;;;;22.35;46.08;100193.00;5041767;28;45442;-68
2023/07/24 00:17:21;;;;;;;;;4.00;4.00;;;;;22.34;46.02;100187.75;5041581;28;45246;-67
2023/07/24 00:19:46;;;;;;;;;5.50;4.00;;;;;22.34;46.16;100183.25;5053720;28;45285;-67
2023/07/24 00:22:12;;;;;;;;;5.00;4.00;;;;;22.34;45.85;100182.38;5042912;28;45173;-67
2023/07/24 00:24:37;;;;;;;;;4.75;4.00;;;;;22.34;46.16;100179.72;5041455;28;45438;-67
2023/07/24 00:27:02;;;;;;;;;2.25;2.25;;;;;22.32;46.32;100166.44;5041275;28;47290;-67
2023/07/24 00:29:28;;;;;;;;;3.00;3.00;;;;;22.31;45.94;100153.19;5041736;28;45246;-67
2023/07/24 00:31:53;;;;;;;;;2.25;2.25;;;;;;;;5041588;28;45224;-67
2023/07/24 00:34:18;;;;;;;;;4.00;2.50;;;;;22.28;46.34;100167.66;5041537;28;45551;-67
2023/07/24 00:36:44;;;;;;;;;2.00;2.00;;;;;22.28;46.32;100174.84;5041329;28;45207;-67
2023/07/24 00:39:09;;;;;;;;;4.75;4.00;;;;;22.26;46.31;100180.28;5041320;28;45295;-67
2023/07/24 00:41:34;;;;;;;;;3.50;3.50;;;;;22.25;46.34;100159.84;5041422;28;45399;-67
2023/07/24 00:44:00;;;;;;;;;5.00;3.00;;;;;22.24;46.37;100152.78;5041244;28;46686;-67
2023/07/24 00:46:25;;;;;;;;;2.50;2.50;;;;;22.21;46.37;100136.94;5041150;28;45246;-67
2023/07/24 00:48:52;;;;;;;;;2.25;2.25;;;;;22.22;46.49;100142.19;5041319;28;45434;-67
2023/07/24 00:51:18;;;;;;;;;4.00;3.00;;;;;22.20;46.65;100124.53;5041360;28;45325;-67
2023/07/24 00:53:43;;;;;;;;;3.50;2.00;;;;;22.18;46.16;100121.97;5040970;28;45491;-67
2023/07/24 00:56:10;;;;;;;;;4.00;3.00;;;;;22.18;46.80;100113.09;5040158;28;45844;-67
2023/07/24 00:58:37;;;;;;;;;5.00;3.00;;;;;22.16;46.49;100105.19;5030414;28;45185;-67
2023/07/24 01:01:03;;;;;;;;;4.00;4.00;;;;;22.15;46.30;100108.81;5038787;28;45486;-67
2023/07/24 01:03:33;;;;;;;;;4.25;2.50;;;;;22.15;46.60;100105.28;5041028;28;45373;-67
2023/07/24 01:06:01;;;;;;;;;4.00;3.25;;;;;22.13;46.63;100097.38;5034364;28;46097;-67
2023/07/24 01:08:27;;;;;;;;;3.25;3.25;;;;;22.10;46.54;100083.34;5040733;28;45163;-67
2023/07/24 01:10:53;;;;;;;;;5.25;3.75;;;;;22.10;46.91;100086.91;5040852;28;45410;-69
2023/07/24 01:13:24;;;;;;;;;3.00;3.00;;;;;22.08;46.92;100095.03;5040979;28;45286;-68
2023/07/24 01:16:08;;;;;;;;;2.50;2.00;;;;;22.06;46.55;100105.00;5040683;28;46167;-68
2023/07/24 01:18:36;;;;;;;;;5.75;4.00;;;;;22.07;47.03;100114.75;5040691;28;45497;-68
2023/07/24 01:21:05;;;;;;;;;3.50;3.50;;;;;22.06;46.67;100126.41;5041135;28;45218;-68
2023/07/24 01:24:20;;;;;;;;;5.25;3.00;;;;;21.96;46.92;100111.13;5039085;28;45533;-67
2023/07/24 01:26:46;;;;;;;;;3.50;3.00;;;;;22.02;46.80;100124.88;4965765;28;46240;-68
2023/07/24 01:29:11;;;;;;;;;3.50;3.50;;;;;21.99;46.91;100125.13;4968741;28;45475;-68
2023/07/24 01:31:36;;;;;;;;;4.25;3.75;;;;;22.01;46.67;100133.91;5009627;28;45502;-67
2023/07/24 01:34:02;;;;;;;;;4.00;4.00;;;;;22.00;47.06;100126.84;5040609;28;45301;-67
2023/07/24 01:36:27;;;;;;;;;5.25;3.00;;;;;21.99;46.98;100111.75;5052438;28;46197;-66
2023/07/24 01:38:53;;;;;;;;;3.75;3.75;;;;;21.99;46.86;100109.06;5038473;28;47122;-67
2023/07/24 01:41:19;;;;;;;;;4.00;4.00;;;;;21.96;47.01;100120.00;5039650;28;45303;-68
2023/07/24 01:43:44;;;;;;;;;5.50;5.00;;;;;21.97;47.17;100126.19;5040350;28;45514;-67
2023/07/24 01:46:10;;;;;;;;;4.25;4.25;;;;;21.95;46.81;100109.41;5040282;28;45382;-67
2023/07/24 01:48:35;;;;;;;;;4.25;4.25;;;;;21.95;46.96;100106.72;5040377;28;45175;-67
2023/07/24 01:51:00;;;;;;;;;4.75;4.25;;;;;21.94;47.13;100105.88;5043126;28;45497;-66
2023/07/24 01:53:26;;;;;;;;;5.25;4.25;;;;;21.93;46.61;100106.84;5049479;28;45194;-68
2023/07/24 01:55:51;;;;;;;;;4.50;4.50;;;;;21.92;46.99;100115.81;5040019;28;45986;-67
2023/07/24 01:58:16;;;;;;;;;5.75;5.00;;;;;21.91;46.74;100116.78;5037699;28;45932;-66
2023/07/24 02:00:43;;;;;;;;;6.25;5.00;;;;;21.87;47.12;100109.97;5040241;28;45155;-65
2023/07/24 02:03:08;;;;;;;;;3.50;3.50;;;;;21.88;46.83;100111.66;5040233;28;45522;-65
2023/07/24 02:05:34;;;;;;;;;7.75;6.75;;;;;21.86;46.95;100109.13;5036027;28;45514;-65
2023/07/24 02:07:59;;;;;;;;;4.00;4.00;;;;;21.86;46.97;100105.56;5039986;28;45280;-66
2023/07/24 02:10:24;;;;;;;;;7.50;5.00;;;;;21.83;47.20;100112.00;5041301;28;45357;-66
2023/07/24 02:12:50;;;;;;;;;5.25;5.25;;;;;21.83;47.10;100108.47;5049357;28;46839;-66
2023/07/24 02:15:15;;;;;;;;;5.00;5.00;;;;;21.81;47.36;100099.69;5039864;28;46364;-66
2023/07/24 02:17:42;;;;;;;;;4.75;4.00;;;;;21.80;46.90;100120.25;5040060;28;45320;-66
2023/07/24 02:20:08;;;;;;;;;5.00;5.00;;;;;21.80;47.04;100119.38;5039974;28;45521;-66
2023/07/24 02:22:33;;;;;;;;;6.00;6.00;;;;;21.78;47.77;100110.63;5039449;28;45467;-66
2023/07/24 02:24:58;;;;;;;;;4.25;4.25;;;;;21.78;47.05;100097.25;5039075;28;54802;-66
2023/07/24 02:27:31;;;;;;;;;6.00;5.00;;;;;21.75;47.42;100095.66;5040036;28;45288;-66
2023/07/24 02:29:56;;;;;;;;;4.25;4.25;;;;;21.72;47.29;100082.50;5039910;28;45457;-67
2023/07/24 02:32:22;;;;;;;;;3.75;3.50;;;;;21.68;47.39;100063.13;5039738;28;45452;-67
2023/07/24 02:34:49;;;;;;;;;5.00;4.75;;;;;21.67;48.01;100074.81;5039191;28;45420;-67
2023/07/24 02:37:15;;;;;;;;;5.50;4.00;;;;;21.63;48.16;100080.47;5039656;28;45463;-67
2023/07/24 02:39:40;;;;;;;;;5.25;4.75;;;;;21.61;47.92;100074.38;5039578;28;45287;-67
2023/07/24 02:42:05;;;;;;;;;8.00;6.00;;;;;21.55;47.86;100073.84;5039545;28;47982;-67
2023/07/24 02:44:33;;;;;;;;;5.25;4.00;;;;;21.53;47.77;100077.56;5039362;28;45274;-67
2023/07/24 02:46:59;;;;;;;;;4.00;4.00;;;;;21.47;48.22;100081.53;5039750;28;45332;-67
2023/07/24 02:49:24;;;;;;;;;4.50;4.25;;;;;21.42;47.93;100087.22;5039329;28;46272;-67
2023/07/24 02:51:50;;;;;;;;;4.25;3.25;;;;;21.36;48.29;100066.25;5039667;28;45395;-67
2023/07/24 02:54:15;;;;;;;;;5.25;3.00;;;;;21.31;48.27;100065.72;5025001;28;45417;-67
2023/07/24 02:56:40;;;;;;;;;5.25;5.25;;;;;21.26;48.07;100059.84;5039536;28;45406;-67
2023/07/24 02:59:05;;;;;;;;;6.50;4.50;;;;;21.18;48.80;100068.41;5025989;28;45444;-67
2023/07/24 03:01:31;;;;;;;;;2.75;2.75;;;;;21.16;48.90;100072.16;5039675;28;45415;-67
2023/07/24 03:03:56;;;;;;;;;4.25;4.25;;;;;21.09;48.76;100072.56;5038839;28;53254;-67
2023/07/24 03:06:21;;;;;;;;;5.00;4.00;;;;;21.07;48.88;100071.81;5035936;28;45328;-67
2023/07/24 03:08:47;;;;;;;;;5.00;4.00;;;;;21.04;48.80;100061.34;5039139;28;45440;-67
2023/07/24 03:11:12;;;;;;;;;6.00;4.25;;;;;21.00;48.77;100057.16;5039232;28;45434;-67
2023/07/24 03:13:40;;;;;;;;;4.25;4.00;;;;;20.99;49.17;100082.16;5040073;28;56212;-66
2023/07/24 03:16:06;;;;;;;;;7.25;5.25;;;;;20.96;48.73;100085.03;5039398;28;45301;-66
2023/07/24 03:18:31;;;;;;;;;5.00;5.00;;;;;20.94;48.93;100094.97;5041353;28;45300;-67
2023/07/24 03:20:58;;;;;;;;;5.75;4.25;;;;;20.90;48.87;100090.78;5050620;28;45435;-66
2023/07/24 03:23:24;;;;;;;;;6.00;4.00;;;;;20.85;49.28;100101.78;5038502;28;46362;-67
2023/07/24 03:25:49;;;;;;;;;6.25;4.50;;;;;20.85;49.05;100106.28;5039019;28;45277;-67
2023/07/24 03:28:14;;;;;;;;;4.00;3.50;;;;;20.81;49.12;100099.44;5039176;28;45372;-66
2023/07/24 03:30:40;;;;;;;;;6.50;6.50;;;;;20.78;49.40;100090.66;5039234;28;45246;-66
2023/07/24 03:33:06;;;;;;;;;5.25;5.00;;;;;20.76;49.45;100089.91;5041193;28;46446;-66
2023/07/24 03:35:32;;;;;;;;;4.00;4.00;;;;;20.74;49.76;100091.84;5039027;28;45276;-66
2023/07/24 03:37:57;;;;;;;;;4.25;3.25;;;;;20.72;50.00;100085.75;5038730;28;45382;-66
2023/07/24 03:40:22;;;;;;;;;6.50;4.50;;;;;20.70;49.68;100076.09;5038965;28;45323;-66
2023/07/24 03:42:47;;;;;;;;;5.50;4.25;;;;;20.66;50.07;100086.13;5038804;28;45360;-66
2023/07/24 03:45:13;;;;;;;;;4.00;4.00;;;;;20.62;50.13;100095.28;5037653;28;45395;-67
2023/07/24 03:47:38;;;;;;;;;4.50;4.50;;;;;20.61;50.32;100090.91;5041736;28;45371;-66
2023/07/24 03:50:04;;;;;;;;;3.00;3.00;;;;;20.57;50.49;100084.06;5042284;28;45325;-66
2023/07/24 03:52:29;;;;;;;;;3.50;3.25;;;;;20.53;50.29;100069.22;5041862;28;46286;-67
2023/07/24 03:54:54;;;;;;;;;4.75;3.75;;;;;20.49;50.98;100049.03;5041796;28;51529;-67
2023/07/24 03:57:20;;;;;;;;;2.25;1.75;;;;;20.46;51.05;100058.09;5039981;28;45316;-67
2023/07/24 03:59:45;;;;;;;;;4.25;2.75;;;;;20.43;51.05;100068.97;5042041;28;45470;-66
2023/07/24 04:02:10;;;;;;;;;4.75;3.00;;;;;20.37;51.29;100058.72;5035122;28;46207;-66
2023/07/24 04:04:37;;;;;;;;;7.50;4.50;;;;;20.32;51.22;100061.66;5041788;28;45344;-66
2023/07/24 04:07:02;;;;;;;;;4.00;4.00;;;;;20.34;50.88;100072.22;5037286;28;45378;-66
2023/07/24 04:09:28;;;;;;;;;3.75;3.75;;;;;20.29;51.24;100075.22;5036503;28;45465;-66
2023/07/24 04:11:53;;;;;;;;;5.75;3.75;;;;;20.26;51.13;100070.94;5041530;28;46277;-66
2023/07/24 04:14:18;;;;;;;;;5.50;4.00;;;;;20.25;51.08;100065.69;5041889;28;45476;-66
2023/07/24 04:16:44;;;;;;;;;2.25;2.00;;;;;20.22;51.55;100066.75;5039432;28;46276;-66
2023/07/24 04:19:10;;;;;;;;;4.25;4.00;;;;;20.21;51.67;100073.03;5032816;28;45656;-66
2023/07/24 04:21:35;;;;;;;;;3.00;3.00;;;;;20.20;51.81;100073.13;5052550;28;46022;-67
2023/07/24 04:24:00;;;;;;;;;4.00;4.00;;;;;20.18;51.43;100065.25;5035270;28;45635;-67
2023/07/24 04:26:26;;;;;;;;;5.00;4.00;;;;;20.16;51.42;100066.31;5025224;28;45316;-67
2023/07/24 04:28:51;;;;;;;;;6.25;4.00;;;;;20.17;51.96;100068.84;5041843;28;45337;-67
2023/07/24 04:31:16;;;;;;;;;4.00;3.00;;;;;20.15;51.84;100065.47;5017773;28;47055;-67
2023/07/24 04:33:42;;;;;;;;;4.00;3.00;;;;;20.16;51.63;100060.97;5041626;28;45422;-67
2023/07/24 04:36:07;;;;;;;;;1.75;1.75;;;;;20.16;51.77;100060.97;5041340;28;45374;-67
2023/07/24 04:38:32;;;;;;;;;3.50;3.00;;;;;20.16;51.82;100071.63;5036443;28;45302;-67
2023/07/24 04:41:01;;;;;;;;;3.25;3.25;;;;;20.14;52.00;100072.59;5039031;28;45308;-67
2023/07/24 04:43:26;;;;;;;;;3.00;3.00;;;;;20.15;52.06;100070.78;5041415;28;45413;-67
2023/07/24 04:45:52;;;;;;;;;4.00;4.00;;;;;20.14;52.16;100071.75;5040937;28;52491;-67
2023/07/24 04:48:17;;;;;;;;;3.25;3.00;;;;;20.14;52.64;100067.25;5035589;28;45503;-67
2023/07/24 04:50:43;;;;;;;;;4.00;4.00;;;;;20.16;52.71;100074.31;5041150;28;45523;-67
2023/07/24 04:53:08;;;;;;;;;4.75;3.50;;;;;20.13;52.64;100062.88;5041100;28;51079;-67
2023/07/24 04:55:33;;;;;;;;;5.00;3.00;;;;;20.12;52.51;100071.84;5041175;28;45171;-67
2023/07/24 04:57:58;;;;;;;;;4.25;3.75;;;;;20.11;53.06;100066.59;5036976;28;51874;-67
2023/07/24 05:00:24;;;;;;;;;4.25;3.00;;;;;20.11;52.62;100067.47;5033521;28;45395;-67
2023/07/24 05:02:50;;;;;;;;;4.00;4.00;;;;;20.11;53.00;100063.91;5041029;28;45285;-67
2023/07/24 05:05:15;;;;;;;;;4.50;4.50;;;;;20.11;53.24;100078.13;5038638;28;45542;-67
2023/07/24 05:07:40;;;;;;;;;5.50;4.00;;;;;20.11;52.72;100072.78;5038222;28;45438;-67
2023/07/24 05:10:06;;;;;;;;;4.00;2.50;;;;;20.13;53.17;100072.69;5040382;28;46099;-67
2023/07/24 05:12:31;;;;;;;;;4.00;4.00;;;;;20.13;52.85;100065.53;5039643;28;45322;-67
2023/07/24 05:14:57;;;;;;;;;7.00;3.75;;;;;20.14;52.82;100061.06;5043519;28;45326;-67
2023/07/24 05:17:22;;;;;;;;;4.00;4.00;;;;;20.16;53.51;100060.97;5040426;28;50647;-67
2023/07/24 05:19:47;;;;;;;;;3.25;3.25;;;;;20.16;52.96;100063.63;5040791;28;46463;-67
2023/07/24 05:22:13;;;;;;;;;5.00;5.00;;;;;20.16;53.02;100066.31;5040330;28;45268;-66
2023/07/24 05:24:38;;;;;;;;;6.00;4.50;;;;;20.15;53.16;100065.47;5030471;28;45389;-67
2023/07/24 05:27:07;;;;;;;;;1.75;1.75;;;;;20.16;53.12;100061.81;5030406;28;45457;-67
2023/07/24 05:29:32;;;;;;;;;1.00;1.00;;;;;20.17;53.11;100071.53;5037428;28;45235;-67
2023/07/24 05:31:58;;;;;;;;;2.50;2.50;;;;;20.16;53.36;100066.31;5040441;28;45446;-66
2023/07/24 05:34:24;;;;;;;;;4.25;3.50;;;;;20.18;53.39;100065.25;5040362;28;45564;-67
2023/07/24 05:36:49;;;;;;;;;1.25;1.25;;;;;20.17;53.33;100071.53;5040486;28;45225;-68
2023/07/24 05:39:15;;;;;;;;;1.25;1.25;;;;;20.18;53.70;100072.41;5040313;28;45384;-67
2023/07/24 05:41:40;;;;;;;;;2.00;2.00;;;;;20.17;53.81;100066.19;5040219;28;45491;-67
2023/07/24 05:44:05;;;;;;;;;2.50;1.00;;;;;20.16;53.58;100063.63;5040692;28;45448;-67
2023/07/24 05:46:30;;;;;;;;;1.00;1.00;;;;;20.14;53.89;100059.25;5040337;28;45297;-67
2023/07/24 05:48:56;;;;;;;;;3.00;2.00;;;;;20.16;53.84;100058.31;5040295;28;50851;-67
2023/07/24 05:51:22;;;;;;;;;1.00;1.00;;;;;20.17;53.71;100062.69;5040116;28;45335;-66
2023/07/24 05:53:47;;;;;;;;;2.00;2.00;;;;;20.17;53.74;100068.00;5040341;28;45305;-66
2023/07/24 05:56:12;;;;;;;;;2.00;1.25;;;;;20.17;53.41;100073.34;5039895;28;45506;-67
2023/07/24 05:58:38;;;;;;;;;2.00;1.00;;;;;20.16;53.27;100069.81;5028783;28;55387;-67
2023/07/24 06:01:03;;;;;;;;;0.00;0.00;;;;;20.17;53.26;100073.34;5037820;28;47184;-67
2023/07/24 06:03:28;;;;;;;;;1.75;1.75;;;;;20.13;53.36;100072.69;5030060;28;45400;-70
2023/07/24 06:05:54;;;;;;;;;1.75;1.75;;;;;20.15;53.09;100073.47;5036367;28;45638;-68
2023/07/24 06:08:20;;;;;;;;;0.00;0.00;;;;;20.15;52.83;100073.47;5039934;28;45384;-68
2023/07/24 06:10:50;;;;;;;;;1.75;1.50;;;;;20.14;52.66;100069.91;5034411;28;45451;-70
2023/07/24 06:13:16;;;;;;;;;2.50;1.50;;;;;20.15;53.27;100076.13;5039846;28;45464;-73
2023/07/24 06:15:41;;;;;;;;;2.25;1.00;;;;;20.15;52.53;100073.47;5039718;28;45313;-69
2023/07/24 06:18:07;;;;;;;;;2.75;1.50;;;;;20.16;52.60;100084.97;5035675;28;45403;-67
2023/07/24 06:20:32;;;;;;;;;2.00;2.00;;;;;20.19;52.47;100079.41;5038528;28;45423;-66
2023/07/24 06:22:57;;;;;;;;;4.00;1.75;;;;;20.20;52.80;100079.34;5039209;28;45308;-68
2023/07/24 06:25:23;;;;;;;;;1.25;1.25;;;;;20.20;52.83;100078.47;5039422;28;45322;-69
2023/07/24 06:27:48;;;;;;;;;2.00;2.00;;;;;20.23;52.47;100076.47;5039812;28;45446;-71
2023/07/24 06:30:13;;;;;;;;;1.75;1.75;;;;;20.26;53.08;100084.28;5047149;28;55630;-67
2023/07/24 06:32:39;;;;;;;;;2.50;2.50;;;;;20.27;52.90;100077.13;5032174;28;45330;-67
2023/07/24 06:35:05;;;;;;;;;1.75;1.75;;;;;20.31;52.84;100070.63;5038682;28;45605;-68
2023/07/24 06:37:30;;;;;;;;;1.00;1.00;;;;;20.35;53.02;100074.81;5032227;28;45485;-68
2023/07/24 06:39:56;;;;;;;;;3.00;3.00;;;;;20.39;52.62;100080.78;5039000;28;45186;-68
2023/07/24 06:42:21;;;;;;;;;2.00;2.00;;;;;20.41;52.51;100074.38;5039400;28;45416;-69
2023/07/24 06:44:46;;;;;;;;;2.00;2.00;;;;;20.44;52.70;100073.38;5039212;28;45246;-68
2023/07/24 06:47:12;;;;;;;;;3.00;1.75;;;;;20.47;53.00;100075.81;5029124;28;45257;-68
2023/07/24 06:49:37;;;;;;;;;2.00;2.00;;;;;20.49;52.48;100073.03;5045467;28;45230;-68
2023/07/24 06:52:03;;;;;;;;;1.75;1.75;;;;;20.51;52.42;100081.81;5038091;28;45232;-70
2023/07/24 06:54:28;;;;;;;;;3.25;2.25;;;;;20.54;52.67;100081.59;5039146;28;45144;-70
2023/07/24 06:56:53;;;;;;;;;1.75;0.00;;;;;20.56;52.74;100075.19;5039588;28;45321;-68
2023/07/24 06:59:18;;;;;;;;;3.00;2.00;;;;;20.58;52.84;100096.47;5025742;28;45212;-73
2023/07/24 07:01:44;;;;;;;;;3.00;2.00;;;;;20.58;52.37;100073.28;5039466;28;45605;-66
2023/07/24 07:04:09;;;;;;;;;2.75;2.75;;;;;20.60;52.38;100076.72;5039087;28;45598;-67
2023/07/24 07:06:34;;;;;;;;;3.00;3.00;;;;;20.62;52.66;100073.94;5025410;28;60244;-66
2023/07/24 07:08:59;;;;;;;;;2.75;2.00;;;;;20.63;52.39;100073.00;5036241;28;51967;-68
2023/07/24 07:11:25;;;;;;;;;3.00;0.50;;;;;20.64;52.22;100064.03;5034819;28;45399;-64
2023/07/24 07:13:50;;;;;;;;;2.00;1.00;;;;;20.69;52.40;100069.03;5038508;28;50469;-65
2023/07/24 07:16:16;;;;;;;;;5.25;2.25;;;;;20.72;52.97;100075.06;5038788;28;46898;-65
2023/07/24 07:18:42;;;;;;;;;2.25;2.25;;;;;20.73;52.75;100076.78;5051074;28;45484;-67
2023/07/24 07:21:07;;;;;;;;;2.00;2.00;;;;;20.75;53.02;100077.53;5047873;28;45534;-67
2023/07/24 07:23:32;;;;;;;;;2.00;2.00;;;;;20.73;52.41;100059.91;5040801;28;53308;-67
2023/07/24 07:25:58;;;;;;;;;1.25;1.25;;;;;20.80;52.79;100076.38;5042101;28;45322;-67
2023/07/24 07:28:23;;;;;;;;;2.00;1.00;;;;;20.77;53.33;100086.28;5055016;28;45340;-67
2023/07/24 07:30:48;;;;;;;;;2.50;1.00;;;;;20.78;52.71;100090.66;5042918;28;45302;-67
2023/07/24 07:33:13;;;;;;;;;1.00;1.00;;;;;20.76;53.06;100095.25;5042306;28;45449;-67
2023/07/24 07:35:39;;;;;;;;;2.00;2.00;;;;;20.76;53.13;100079.22;5042556;28;45401;-67
2023/07/24 07:38:04;;;;;;;;;1.00;1.00;;;;;20.76;52.53;100081.88;5041974;28;45341;-66
2023/07/24 07:40:29;;;;;;;;;1.50;1.50;;;;;20.74;52.19;100083.84;5042374;28;45307;-73
2023/07/24 07:42:56;;;;;;;;;1.00;1.00;;;;;20.80;52.33;100087.03;5042243;28;45574;-70
2023/07/24 07:45:23;;;;;;;;;2.50;2.00;;;;;20.80;52.42;100087.88;5042333;28;45231;-68
2023/07/24 07:47:48;;;;;;;;;1.00;1.00;;;;;20.80;51.92;100089.72;5042087;28;45270;-68
2023/07/24 07:50:14;;;;;;;;;2.00;2.00;;;;;20.81;52.54;100088.75;5042427;28;45214;-69
2023/07/24 07:52:39;;;;;;;;;2.00;2.00;;;;;20.82;51.80;100093.13;5041966;28;45344;-69
2023/07/24 07:55:08;;;;;;;;;2.00;1.00;;;;;20.84;52.44;100094.75;5041844;28;45229;-67
2023/07/24 07:57:37;;;;;;;;;1.25;1.00;;;;;20.82;51.86;100087.78;5051932;28;45395;-66
2023/07/24 08:00:03;;;;;;;;;1.25;1.00;;;;;20.84;51.61;100089.41;5031832;28;45312;-66
2023/07/24 08:02:29;;;;;;;;;1.75;1.75;;;;;20.86;52.30;100102.66;5041850;28;45229;-66
2023/07/24 08:04:54;;;;;;;;;2.00;2.00;;;;;20.86;52.06;100082.13;5041750;28;45305;-66
2023/07/24 08:07:19;;;;;;;;;3.00;2.25;;;;;20.89;52.02;100099.75;5038273;28;50261;-66
2023/07/24 08:09:45;;;;;;;;;4.00;2.00;;;;;20.86;51.67;100095.47;5042237;28;45228;-66
2023/07/24 08:12:11;;;;;;;;;1.00;1.00;;;;;20.88;51.56;100084.69;5041774;28;45358;-66
2023/07/24 08:14:36;;;;;;;;;3.00;3.00;;;;;20.90;51.94;100082.78;5041407;28;56934;-66
2023/07/24 08:17:01;;;;;;;;;3.00;2.25;;;;;20.89;51.18;100087.28;5023761;28;45252;-66
2023/07/24 08:19:30;;;;;;;;;2.00;2.00;;;;;20.93;51.14;100080.75;5034865;28;45325;-66
2023/07/24 08:21:55;;;;;;;;;4.00;3.50;;;;;20.93;50.78;100077.25;5041464;28;45268;-66
2023/07/24 08:24:21;;;;;;;;;2.00;2.00;;;;;20.93;50.90;100080.75;5040844;28;45372;-66
2023/07/24 08:26:46;;;;;;;;;3.00;2.00;;;;;20.96;50.85;100077.03;5041522;28;45189;-67
2023/07/24 08:29:12;;;;;;;;;2.25;2.25;;;;;21.00;51.00;100083.03;5041994;28;45307;-67
2023/07/24 08:31:37;;;;;;;;;2.25;1.50;;;;;21.03;50.40;100075.66;5041442;28;45229;-66
2023/07/24 08:34:02;;;;;;;;;2.00;2.00;;;;;21.07;49.98;100082.50;5041186;28;46121;-68
2023/07/24 08:36:29;;;;;;;;;1.75;1.25;;;;;21.07;50.36;100077.16;5041515;28;45278;-67
2023/07/24 08:38:54;;;;;;;;;1.75;1.75;;;;;21.10;49.63;100084.94;5041250;28;45510;-67
2023/07/24 08:41:19;;;;;;;;;1.50;1.50;;;;;21.13;50.03;100078.56;5041325;28;45330;-67
2023/07/24 08:43:45;;;;;;;;;3.00;3.00;;;;;21.16;49.94;100085.50;5041483;28;46033;-67
2023/07/24 08:46:11;;;;;;;;;3.25;1.75;;;;;21.18;49.17;100088.91;5041330;28;45340;-67
2023/07/24 08:48:40;;;;;;;;;2.00;1.25;;;;;21.22;49.56;100093.06;5041604;28;45400;-67
2023/07/24 08:51:09;;;;;;;;;1.50;1.25;;;;;21.22;49.12;100082.38;5041398;28;45289;-67
2023/07/24 08:53:36;;;;;;;;;1.00;1.00;;;;;21.24;49.30;100076.00;5040964;28;47069;-67
2023/07/24 08:56:06;;;;;;;;;1.25;1.25;;;;;21.30;49.05;100081.88;5040212;28;45273;-67
2023/07/24 08:58:32;;;;;;;;;0.25;0.25;;;;;21.33;48.55;100097.69;5014655;28;45310;-67
2023/07/24 09:01:01;;;;;;;;;2.75;2.00;;;;;21.38;48.74;100090.19;5033738;28;45509;-67
2023/07/24 09:03:27;;;;;;;;;2.00;2.00;;;;;21.40;48.38;100094.47;5040985;28;46246;-68
2023/07/24 09:05:53;;;;;;;;;1.75;1.75;;;;;21.42;48.58;100095.22;5041562;28;45332;-67
2023/07/24 09:08:35;;;;;;;;;2.75;1.00;;;;;21.47;48.43;100094.03;5050047;28;45479;-67
2023/07/24 09:11:02;;;;;;;;;2.25;2.25;;;;;21.47;47.90;100097.59;5041007;28;45563;-68
2023/07/24 09:13:28;;;;;;;;;1.00;1.00;;;;;21.50;47.32;100101.84;5040576;28;45333;-67
2023/07/24 09:15:53;;;;;;;;;1.00;1.00;;;;;21.52;47.21;100091.88;5040908;28;45744;-67
2023/07/24 09:18:19;;;;;;;;;1.00;1.00;;;;;21.54;47.49;100088.16;5033306;28;45542;-67
2023/07/24 09:20:45;;;;;;;;;4.00;3.00;;;;;21.59;46.79;100093.22;5041075;28;45300;-67
2023/07/24 09:23:12;;;;;;;;;1.25;1.25;;;;;21.62;46.80;100090.31;5040477;28;45288;-67
2023/07/24 09:25:40;;;;;;;;;2.00;2.00;;;;;21.65;46.62;100092.78;5040874;28;45222;-67
2023/07/24 09:28:13;;;;;;;;;2.00;2.00;;;;;21.68;46.67;100089.88;5040726;28;45274;-67
2023/07/24 09:30:40;;;;;;;;;1.25;1.00;;;;;21.72;46.38;100094.06;5028408;28;45463;-68
2023/07/24 09:33:06;;;;;;;;;2.00;1.00;;;;;21.77;46.30;100093.72;5040366;28;46044;-67
2023/07/24 09:35:32;;;;;;;;;1.75;1.75;;;;;21.78;46.39;100098.09;5040607;28;45313;-67
2023/07/24 09:38:06;;;;;;;;;0.00;0.00;;;;;21.81;46.12;100100.56;5027678;28;45495;-67
2023/07/24 09:40:45;;;;;;;;;2.25;2.25;;;;;21.86;46.15;100102.88;5040572;28;45398;-67
2023/07/24 09:43:29;;;;;;;;;3.00;1.25;;;;;21.88;46.10;100091.13;5039882;28;46494;-67
2023/07/24 09:45:56;;;;;;;;;1.00;1.00;;;;;21.92;46.25;100102.44;5039999;28;45458;-67
2023/07/24 09:48:23;;;;;;;;;2.00;2.00;;;;;21.93;46.06;100106.84;5040657;28;45336;-67
2023/07/24 09:50:54;;;;;;;;;3.00;3.00;;;;;21.99;45.82;100111.75;5040254;28;45241;-67
2023/07/24 09:53:44;;;;;;;;;1.75;1.75;;;;;22.02;46.04;100108.84;5039990;28;46320;-65
2023/07/24 09:56:10;;;;;;;;;2.00;2.00;;;;;22.07;46.05;100103.16;5041612;28;45313;-65
2023/07/24 09:58:38;;;;;;;;;1.25;1.00;;;;;22.12;46.31;100101.00;5047553;28;45526;-65
2023/07/24 10:01:06;;;;;;;;;3.25;3.00;;;;;22.18;46.02;100113.09;5053572;28;45585;-67
2023/07/24 10:03:38;;;;;;;;;3.00;2.00;;;;;22.23;46.17;100106.44;5040611;28;47842;-67
2023/07/24 10:06:04;;;;;;;;;2.00;2.00;;;;;22.29;45.65;100093.56;5039457;28;45367;-67
2023/07/24 10:08:30;;;;;;;;;2.00;1.25;;;;;22.40;45.98;100104.34;5039223;28;45447;-67
2023/07/24 10:10:58;;;;;;;;;3.00;2.00;;;;;22.49;45.89;100106.38;5038402;28;45342;-67
2023/07/24 10:13:25;;;;;;;;;3.00;2.00;;;;;22.58;45.56;100110.19;5038561;28;46463;-67
2023/07/24 10:15:51;;;;;;;;;0.00;0.00;;;;;22.64;45.49;100108.84;5039247;28;45428;-67
2023/07/24 10:18:20;;;;;;;;;1.50;1.50;;;;;22.71;45.27;100108.28;5039738;28;46584;-71
2023/07/24 10:20:46;;;;;;;;;1.75;1.00;;;;;22.83;45.04;100102.97;5027281;28;45234;-74
2023/07/24 10:23:16;;;;;;;;;1.00;1.00;;;;;22.93;45.01;100097.75;5039162;28;45435;-76
2023/07/24 10:25:45;;;;;;;;;2.50;1.00;;;;;23.05;44.83;100094.16;5040014;28;45372;-78
2023/07/24 10:28:12;;;;;;;;;1.00;1.00;;;;;23.22;44.97;100106.28;5033194;28;45452;-74
2023/07/24 10:30:41;;;;;;;;;1.25;1.00;;;;;23.39;44.99;100104.13;5039984;28;45240;-73
2023/07/24 10:33:17;;;;;;;;;3.00;2.00;;;;;23.59;44.49;100124.00;5053238;28;45426;-67
2023/07/24 10:35:52;;;;;;;;;2.00;2.00;;;;;23.78;44.45;100104.63;5039736;28;45376;-77
2023/07/24 10:38:18;;;;;;;;;3.50;2.00;;;;;23.98;44.19;100101.22;5039449;28;45334;-76
2023/07/24 10:40:46;;;;;;;;;1.00;1.00;;;;;24.19;43.88;100103.13;5030287;28;45501;-76
2023/07/24 10:43:17;;;;;;;;;1.25;1.25;;;;;24.40;43.67;100100.53;5029118;28;45473;-74
2023/07/24 10:45:50;;;;;;;;;2.00;2.00;;;;;24.65;43.61;100096.69;5026013;28;46981;-73
2023/07/24 10:48:17;;;;;;;;;1.00;1.00;;;;;24.89;43.90;100100.09;5029115;28;45631;-71
2023/07/24 10:50:44;;;;;;;;;1.25;1.25;;;;;25.10;43.80;100114.38;5030900;28;45565;-74
2023/07/24 10:53:20;;;;;;;;;1.00;1.00;;;;;25.35;43.63;100109.59;5039160;28;45466;-77
2023/07/24 10:55:47;;;;;;;;;1.00;1.00;;;;;25.55;43.63;100101.69;5021947;28;45408;-68
2023/07/24 10:58:13;;;;;;;;;1.00;1.00;;;;;25.66;42.27;100106.97;5037969;28;45471;-67
2023/07/24 11:00:43;;;;;;;;;1.50;1.50;;;;;25.82;42.52;100103.75;5035781;28;45318;-66
2023/07/24 11:03:13;;;;;;;;;1.00;1.00;;;;;25.95;41.42;100100.84;5042563;28;46311;-69
2023/07/24 11:05:40;;;;;;;;;2.00;2.00;;;;;26.02;41.05;100110.03;5042034;28;45265;-69
2023/07/24 11:08:15;;;;;;;;;1.25;1.00;;;;;26.14;41.80;100115.34;5042359;28;45296;-72
2023/07/24 11:10:52;;;;;;;;;1.00;1.00;;;;;26.23;41.16;100117.22;5037738;28;45604;-78
2023/07/24 11:13:22;;;;;;;;;0.75;0.75;;;;;26.33;40.80;100114.56;5042257;28;45443;-76
2023/07/24 11:15:49;;;;;;;;;2.00;2.00;;;;;26.37;41.02;100116.81;5041458;28;45781;-69
2023/07/24 11:18:16;;;;;;;;;1.00;1.00;;;;;26.39;39.56;100116.66;5034314;28;45371;-77
2023/07/24 11:20:47;;;;;;;;;0.00;0.00;;;;;26.38;39.13;100121.22;5042167;28;45653;-71
2023/07/24 11:23:13;;;;;;;;;1.00;1.00;;;;;26.31;40.21;100111.16;5038318;28;45374;-78